This is the latest recevied weather packets stored in our database for station/object K4FB. If no packets are shown the sender has not sent any weather packets the latest 10 day(s).
| Time | Temp. | Humidity | Pressure | Rain* | Wind** | Luminosity | Snow |
|---|---|---|---|---|---|---|---|
| 1778022907 | 28.89° C | 49% | 1015 hPa | 0 mm | - | - | - |
| 1778017206 | 32.22° C | 43% | 1015 hPa | 0 mm | - | - | - |
| 1778016903 | 32.22° C | 44% | 1015 hPa | 0 mm | - | - | - |
| 1778016306 | 31.67° C | 43% | 1014.9 hPa | 0 mm | - | - | - |
| 1778013910 | 32.78° C | 40% | 1015 hPa | 0 mm | - | - | - |
| 1778013303 | 32.78° C | 42% | 1015.1 hPa | 0 mm | - | - | - |
| 1778008516 | 33.33° C | 41% | 1015.7 hPa | 0 mm | - | - | - |
| 1778008205 | 33.33° C | 42% | 1015.8 hPa | 0 mm | - | - | - |
| 1778006103 | 32.22° C | 43% | 1016.1 hPa | 0 mm | - | - | - |
| 1778004604 | 31.67° C | 46% | 1016.6 hPa | 0 mm | - | - | - |
| 1778003704 | 30.56° C | 49% | 1016.6 hPa | 0 mm | - | - | - |
| 1778003121 | 30° C | 51% | 1016.8 hPa | 0 mm | - | - | - |
| 1778002214 | 28.33° C | 54% | 1017 hPa | 0 mm | - | - | - |
| 1777999204 | 28.89° C | 52% | 1017.2 hPa | 0 mm | - | - | - |
| 1777997407 | 28.33° C | 53% | 1017.3 hPa | 0 mm | - | - | - |
| 1777996205 | 28.89° C | 52% | 1017.3 hPa | 0 mm | - | - | - |
| 1777993804 | 28.33° C | 56% | 1017.4 hPa | 0 mm | - | - | - |
| 1777989306 | 25° C | 67% | 1017.2 hPa | 0 mm | - | - | - |
| 1777988717 | 25° C | 70% | 1017.2 hPa | 0 mm | - | - | - |
| 1777986916 | 23.33° C | 76% | 1017 hPa | 0 mm | - | - | - |
| 1777984504 | 21.67° C | 82% | 1017 hPa | 0 mm | - | - | - |
| 1777980905 | 18.89° C | 91% | 1016.4 hPa | 0 mm | - | - | - |
| 1777980009 | 18.33° C | 92% | 1016 hPa | 0 mm | - | - | - |
| 1777978508 | 18.33° C | 91% | 1016 hPa | 0 mm | - | - | - |
| 1777977920 | 18.33° C | 92% | 1015.8 hPa | 0 mm | - | - | - |
* Rain latest hour (hover to see other rain measurements)
** Current wind speed in m/s (hover to see current wind gust speed)